Time;durP1;ratioP1;P1;durP2;ratioP2;P2;SDS_P1;SDS_P2;PMS_P1;PMS_P2;Temp;Humidity;BMP_temperature;BMP_pressure;BME280_temperature;BME280_humidity;BME280_pressure;Samples;Min_cycle;Max_cycle;Signal;HPM_P1;HPM_P2
2021/10/05 00:02:36;;;;;;;28.67;16.37;;;11.90;99.90;;;;;;4383461;28;658387;-67
2021/10/05 00:05:24;;;;;;;27.83;16.00;;;11.90;99.90;;;;;;4414323;28;658478;-67
2021/10/05 00:08:13;;;;;;;30.00;16.17;;;11.90;99.90;;;;;;4391504;28;658513;-67
2021/10/05 00:11:00;;;;;;;30.23;15.87;;;11.90;99.90;;;;;;4391687;28;658559;-68
2021/10/05 00:13:48;;;;;;;31.37;15.87;;;11.90;99.90;;;;;;4406209;28;660429;-67
2021/10/05 00:16:35;;;;;;;29.73;16.98;;;11.90;99.90;;;;;;4387315;28;658969;-67
2021/10/05 00:19:23;;;;;;;24.83;15.43;;;11.80;99.90;;;;;;4406477;28;659528;-67
2021/10/05 00:22:10;;;;;;;25.58;14.82;;;11.80;99.90;;;;;;4388037;28;659072;-67
2021/10/05 00:24:59;;;;;;;26.37;15.27;;;11.80;99.90;;;;;;4396281;28;660394;-67
2021/10/05 00:27:47;;;;;;;26.33;16.23;;;11.80;99.90;;;;;;4389324;28;658737;-67
2021/10/05 00:30:34;;;;;;;31.53;15.97;;;11.80;99.90;;;;;;4404862;28;658623;-67
2021/10/05 00:33:22;;;;;;;29.27;16.23;;;11.80;99.90;;;;;;4390525;28;660668;-67
2021/10/05 00:36:10;;;;;;;29.02;17.17;;;11.80;99.90;;;;;;4417451;28;658968;-68
2021/10/05 00:38:57;;;;;;;29.23;16.03;;;11.80;99.90;;;;;;4401929;28;659652;-67
2021/10/05 00:41:46;;;;;;;30.10;16.57;;;11.80;99.90;;;;;;4420183;28;659004;-67
2021/10/05 00:44:36;;;;;;;29.30;16.90;;;11.80;99.90;;;;;;4402983;28;659457;-67
2021/10/05 00:47:23;;;;;;;27.52;15.93;;;11.80;99.90;;;;;;4404702;28;659934;-67
2021/10/05 00:50:14;;;;;;;30.63;16.63;;;11.70;99.90;;;;;;4408083;28;658876;-68
2021/10/05 00:53:02;;;;;;;35.43;18.20;;;11.70;99.90;;;;;;4405612;28;658707;-67
2021/10/05 00:55:49;;;;;;;26.47;16.03;;;11.80;99.90;;;;;;4422191;28;659081;-67
2021/10/05 00:58:39;;;;;;;31.70;17.70;;;11.80;99.90;;;;;;4406776;28;658942;-67
2021/10/05 01:01:26;;;;;;;26.13;16.40;;;11.80;99.90;;;;;;4406207;28;659189;-67
2021/10/05 01:04:13;;;;;;;33.97;19.57;;;11.80;99.90;;;;;;4431479;28;659242;-67
2021/10/05 01:07:02;;;;;;;30.77;18.43;;;11.80;99.90;;;;;;4408414;28;658411;-69
2021/10/05 01:09:49;;;;;;;37.10;19.27;;;11.90;99.90;;;;;;4425053;28;658125;-67
2021/10/05 01:12:37;;;;;;;35.97;19.97;;;12.00;99.90;;;;;;4414454;28;659956;-67
2021/10/05 01:15:27;;;;;;;36.03;19.43;;;12.10;99.90;;;;;;4428530;28;658922;-67
2021/10/05 01:18:14;;;;;;;31.53;19.40;;;12.10;99.90;;;;;;4410275;28;659568;-67
2021/10/05 01:21:04;;;;;;;37.83;19.63;;;12.20;99.90;;;;;;4404879;28;658607;-67
2021/10/05 01:23:52;;;;;;;35.30;21.10;;;12.20;99.90;;;;;;4399996;28;658940;-67
2021/10/05 01:26:39;;;;;;;35.70;22.40;;;12.20;99.90;;;;;;4414239;28;658536;-67
2021/10/05 01:29:28;;;;;;;41.00;23.03;;;12.30;99.90;;;;;;4407330;28;658553;-68
2021/10/05 01:32:15;;;;;;;39.67;23.10;;;12.40;99.90;;;;;;4409708;28;658663;-68
2021/10/05 01:35:03;;;;;;;39.00;22.83;;;12.50;99.90;;;;;;4416525;28;659500;-68
2021/10/05 01:37:52;;;;;;;37.93;22.37;;;12.60;99.90;;;;;;4387989;28;658388;-68
2021/10/05 01:40:40;;;;;;;38.33;22.07;;;12.70;99.90;;;;;;4398785;28;658529;-67
2021/10/05 01:43:27;;;;;;;35.57;21.40;;;12.60;99.90;;;;;;4385007;28;659753;-67
2021/10/05 01:46:15;;;;;;;34.90;20.50;;;12.60;99.90;;;;;;4406683;28;658019;-67
2021/10/05 01:49:02;;;;;;;44.30;21.37;;;12.70;99.90;;;;;;4382927;28;660097;-67
2021/10/05 01:51:50;;;;;;;36.57;21.83;;;12.80;99.90;;;;;;4401971;28;658836;-68
2021/10/05 01:54:39;;;;;;;37.27;20.30;;;12.80;99.90;;;;;;4383675;28;659844;-68
2021/10/05 01:57:26;;;;;;;33.83;19.63;;;12.80;99.90;;;;;;4385594;28;658850;-68
2021/10/05 02:00:14;;;;;;;37.77;20.73;;;12.80;99.90;;;;;;4396231;28;659857;-67
2021/10/05 02:03:02;;;;;;;34.97;20.00;;;12.80;99.90;;;;;;4384080;28;658872;-68
2021/10/05 02:05:49;;;;;;;34.00;18.17;;;12.90;99.90;;;;;;4398213;28;658625;-67
2021/10/05 02:08:37;;;;;;;36.73;19.30;;;12.90;99.90;;;;;;4384958;28;658860;-67
2021/10/05 02:11:26;;;;;;;35.90;18.60;;;12.90;99.90;;;;;;4404180;28;658528;-67
2021/10/05 02:14:13;;;;;;;28.87;17.13;;;13.00;99.90;;;;;;4385074;28;659341;-68
2021/10/05 02:17:01;;;;;;;29.07;16.77;;;12.90;99.90;;;;;;4381252;28;658818;-68
2021/10/05 02:19:48;;;;;;;28.73;17.20;;;13.00;99.90;;;;;;4406046;28;658934;-67
2021/10/05 02:22:36;;;;;;;30.67;16.93;;;13.00;99.90;;;;;;4387644;28;658976;-68
2021/10/05 02:25:23;;;;;;;27.50;16.80;;;12.90;99.90;;;;;;4403385;28;659278;-68
2021/10/05 02:28:12;;;;;;;32.20;17.07;;;12.90;99.90;;;;;;4382775;28;658196;-68
2021/10/05 02:31:00;;;;;;;33.20;17.43;;;12.90;99.90;;;;;;4409198;28;658760;-67
2021/10/05 02:33:47;;;;;;;27.50;16.23;;;12.90;99.90;;;;;;4388598;28;660128;-68
2021/10/05 02:36:35;;;;;;;25.87;15.57;;;12.90;99.90;;;;;;4427901;28;659661;-67
2021/10/05 02:39:22;;;;;;;26.47;15.37;;;12.80;99.90;;;;;;4408476;28;658964;-67
2021/10/05 02:42:10;;;;;;;27.63;15.87;;;12.90;99.90;;;;;;4429122;28;658976;-67
2021/10/05 02:44:59;;;;;;;27.07;15.10;;;12.90;99.90;;;;;;4398459;28;660440;-67
2021/10/05 02:47:47;;;;;;;34.53;16.17;;;12.90;99.90;;;;;;4403668;28;659942;-68
2021/10/05 02:50:34;;;;;;;28.77;14.93;;;12.90;99.90;;;;;;4428537;28;660249;-68
2021/10/05 02:53:22;;;;;;;26.80;14.60;;;12.90;99.90;;;;;;4408378;28;658955;-68
2021/10/05 02:56:11;;;;;;;26.87;15.33;;;12.90;99.90;;;;;;4428286;28;658856;-67
2021/10/05 02:59:00;;;;;;;31.73;15.57;;;12.90;99.90;;;;;;4404572;28;659982;-67
2021/10/05 03:01:51;;;;;;;27.93;15.40;;;12.90;99.90;;;;;;4403114;28;659589;-68
2021/10/05 03:04:39;;;;;;;33.87;15.53;;;12.90;99.90;;;;;;4404705;28;658652;-67
2021/10/05 03:07:26;;;;;;;26.80;15.13;;;12.90;99.90;;;;;;4408686;28;658506;-68
2021/10/05 03:10:13;;;;;;;23.50;14.65;;;12.90;99.90;;;;;;4428129;28;659182;-68
2021/10/05 03:13:01;;;;;;;27.23;14.93;;;12.90;99.90;;;;;;4408884;28;658810;-68
2021/10/05 03:15:48;;;;;;;24.80;14.00;;;12.90;99.90;;;;;;4427874;28;659139;-67
2021/10/05 03:18:41;;;;;;;28.93;14.47;;;12.90;99.90;;;;;;4403153;28;658408;-68
2021/10/05 03:21:28;;;;;;;26.60;15.13;;;12.90;99.90;;;;;;4405227;28;659869;-67
2021/10/05 03:24:16;;;;;;;26.80;14.83;;;12.90;99.90;;;;;;4409653;28;658429;-68
2021/10/05 03:27:06;;;;;;;29.40;14.30;;;12.90;99.90;;;;;;4427718;28;659051;-67
2021/10/05 03:29:54;;;;;;;28.93;15.33;;;12.90;99.90;;;;;;4396416;28;659930;-67
2021/10/05 03:32:43;;;;;;;23.90;15.17;;;12.90;99.90;;;;;;4408798;28;658733;-68
2021/10/05 03:35:34;;;;;;;28.33;14.30;;;12.90;99.90;;;;;;4392557;28;658598;-68
2021/10/05 03:38:23;;;;;;;31.97;14.83;;;12.90;99.90;;;;;;4390503;28;658929;-67
2021/10/05 03:41:13;;;;;;;25.50;14.47;;;12.90;99.90;;;;;;4389481;28;658828;-68
2021/10/05 03:44:02;;;;;;;26.80;15.17;;;12.90;99.90;;;;;;4396521;28;658455;-68
2021/10/05 03:46:51;;;;;;;24.05;14.30;;;12.90;99.90;;;;;;4416235;28;658883;-68
2021/10/05 03:49:40;;;;;;;25.20;14.07;;;12.80;99.90;;;;;;4388499;28;659593;-67
2021/10/05 03:52:29;;;;;;;26.93;12.97;;;12.80;99.90;;;;;;4398131;28;659350;-67
2021/10/05 03:55:17;;;;;;;23.33;13.07;;;12.80;99.90;;;;;;4386870;28;658530;-68
2021/10/05 03:58:04;;;;;;;21.60;12.53;;;12.80;99.90;;;;;;4407616;28;658266;-67
2021/10/05 04:00:52;;;;;;;31.27;12.93;;;12.80;99.90;;;;;;4393944;28;658321;-68
2021/10/05 04:03:41;;;;;;;28.83;13.00;;;12.90;99.90;;;;;;4413844;28;659289;-67
2021/10/05 04:06:28;;;;;;;22.87;12.90;;;12.80;99.90;;;;;;4389932;28;659280;-67
2021/10/05 04:09:17;;;;;;;22.57;12.23;;;12.80;99.90;;;;;;4393958;28;658636;-68
2021/10/05 04:12:07;;;;;;;25.87;13.33;;;12.70;99.90;;;;;;4412773;28;658870;-68
2021/10/05 04:14:54;;;;;;;30.30;12.43;;;12.70;99.90;;;;;;4391747;28;658478;-67
2021/10/05 04:17:42;;;;;;;25.43;12.73;;;12.70;99.90;;;;;;4395961;28;658578;-67
2021/10/05 04:20:29;;;;;;;32.27;13.43;;;12.70;99.90;;;;;;4412589;28;658582;-67
2021/10/05 04:23:17;;;;;;;21.87;13.03;;;12.70;99.90;;;;;;4390427;28;658636;-67
2021/10/05 04:26:06;;;;;;;23.20;13.47;;;12.70;99.90;;;;;;4410549;28;659178;-67
2021/10/05 04:28:54;;;;;;;27.80;13.97;;;12.70;99.90;;;;;;4380384;28;659036;-67
2021/10/05 04:31:41;;;;;;;23.53;12.87;;;12.70;99.90;;;;;;4380684;28;658484;-67
2021/10/05 04:34:29;;;;;;;23.40;12.40;;;12.70;99.90;;;;;;4402935;28;659206;-67
2021/10/05 04:37:16;;;;;;;24.23;12.30;;;12.70;99.90;;;;;;4397627;28;658938;-67
2021/10/05 04:40:05;;;;;;;21.47;11.67;;;12.70;99.90;;;;;;4412017;28;658313;-67
2021/10/05 04:43:22;;;;;;;18.77;12.10;;;12.70;99.90;;;;;;4388766;28;659493;-67
2021/10/05 04:46:09;;;;;;;20.23;11.00;;;12.70;99.90;;;;;;4393612;28;658558;-67
2021/10/05 04:48:57;;;;;;;23.00;10.90;;;12.80;99.90;;;;;;4402114;28;659232;-67
2021/10/05 04:51:44;;;;;;;24.17;11.90;;;12.70;99.90;;;;;;4413430;28;660035;-67
2021/10/05 04:54:32;;;;;;;21.40;11.57;;;12.80;99.90;;;;;;4399834;28;658547;-67
2021/10/05 04:57:20;;;;;;;20.13;11.80;;;12.80;99.90;;;;;;4414334;28;658767;-66
2021/10/05 05:00:10;;;;;;;25.70;11.70;;;12.80;99.90;;;;;;4383924;28;659995;-67
2021/10/05 05:02:58;;;;;;;19.25;10.65;;;12.80;99.90;;;;;;4395186;28;659897;-67
2021/10/05 05:05:45;;;;;;;21.20;11.00;;;12.80;99.90;;;;;;4401814;28;658535;-67
2021/10/05 05:08:33;;;;;;;17.53;10.60;;;12.80;99.90;;;;;;4400862;28;660123;-67
2021/10/05 05:11:21;;;;;;;18.43;10.67;;;12.80;99.90;;;;;;4387706;28;658380;-67
2021/10/05 05:14:10;;;;;;;19.00;10.50;;;12.90;99.90;;;;;;4406092;28;660064;-68
2021/10/05 05:16:59;;;;;;;19.07;10.80;;;12.90;99.90;;;;;;4379940;28;658733;-67
2021/10/05 05:19:47;;;;;;;17.50;10.97;;;13.00;99.90;;;;;;4391569;28;658904;-67
2021/10/05 05:22:34;;;;;;;16.93;10.40;;;13.00;99.90;;;;;;4404092;28;658306;-67
2021/10/05 05:25:22;;;;;;;15.60;10.70;;;13.10;99.90;;;;;;4390294;28;658994;-68
2021/10/05 05:28:14;;;;;;;22.97;10.90;;;13.10;99.90;;;;;;4406429;28;658921;-68
2021/10/05 05:31:12;;;;;;;17.20;11.03;;;13.20;99.90;;;;;;4367816;28;659730;-66
2021/10/05 05:34:03;;;;;;;17.53;11.00;;;13.20;99.90;;;;;;4383579;28;658628;-68
2021/10/05 05:36:59;;;;;;;14.63;10.50;;;13.30;99.90;;;;;;4380633;28;658446;-67
2021/10/05 05:39:58;;;;;;;19.33;10.67;;;13.30;99.90;;;;;;4402313;28;658569;-67
2021/10/05 05:42:51;;;;;;;16.57;10.23;;;13.40;99.90;;;;;;4373318;28;658786;-67
2021/10/05 05:45:41;;;;;;;15.93;9.83;;;13.50;99.90;;;;;;4400263;28;659442;-67
2021/10/05 05:48:29;;;;;;;18.10;10.73;;;13.60;99.90;;;;;;4406665;28;658103;-67
2021/10/05 05:51:18;;;;;;;17.40;10.20;;;13.70;99.90;;;;;;4408880;28;658836;-67
2021/10/05 05:54:06;;;;;;;16.50;10.27;;;13.70;99.90;;;;;;4418021;28;658405;-67
2021/10/05 05:56:53;;;;;;;18.63;9.93;;;13.80;99.90;;;;;;4435775;28;659581;-67
2021/10/05 05:59:41;;;;;;;17.17;10.10;;;13.90;99.90;;;;;;4411936;28;657887;-68
2021/10/05 06:02:28;;;;;;;15.73;9.70;;;14.00;99.90;;;;;;4435053;28;658852;-67
2021/10/05 06:05:16;;;;;;;19.03;10.53;;;14.10;99.90;;;;;;4416952;28;657422;-67
2021/10/05 06:08:05;;;;;;;15.03;9.60;;;14.20;99.90;;;;;;4428467;28;659229;-66
2021/10/05 06:10:53;;;;;;;14.10;9.67;;;14.30;99.90;;;;;;4400850;28;658440;-68
2021/10/05 06:13:41;;;;;;;17.87;10.00;;;14.40;99.90;;;;;;4407670;28;657794;-67
2021/10/05 06:16:28;;;;;;;20.97;9.43;;;14.50;99.90;;;;;;4442618;28;659750;-68
2021/10/05 06:19:16;;;;;;;14.83;8.77;;;14.60;99.90;;;;;;4409168;28;657389;-67
2021/10/05 06:22:04;;;;;;;15.97;8.83;;;14.70;99.90;;;;;;4428843;28;658051;-67
2021/10/05 06:24:53;;;;;;;16.33;8.53;;;14.80;99.90;;;;;;4408103;28;657546;-66
2021/10/05 06:27:41;;;;;;;15.17;8.87;;;15.00;99.90;;;;;;4388869;28;657806;-74
2021/10/05 06:30:29;;;;;;;18.20;8.33;;;15.10;99.90;;;;;;4425362;28;658501;-74
2021/10/05 06:33:17;;;;;;;19.53;8.93;;;15.30;99.90;;;;;;4395582;28;657491;-74
2021/10/05 06:36:07;;;;;;;15.50;9.90;;;15.40;99.90;;;;;;4422929;28;657494;-74
2021/10/05 06:38:55;;;;;;;17.63;10.03;;;15.60;99.90;;;;;;4401612;28;657681;-74
2021/10/05 06:41:44;;;;;;;14.10;8.60;;;15.70;99.90;;;;;;4412223;28;660502;-74
2021/10/05 06:44:32;;;;;;;14.27;7.93;;;15.90;99.90;;;;;;4404310;28;657644;-74
2021/10/05 06:47:20;;;;;;;18.17;8.43;;;16.00;99.90;;;;;;4420615;28;658941;-74
2021/10/05 06:50:08;;;;;;;15.40;8.37;;;16.10;99.90;;;;;;4403438;28;658818;-74
2021/10/05 06:52:56;;;;;;;12.77;8.17;;;16.20;99.90;;;;;;4406400;28;658233;-74
2021/10/05 06:55:46;;;;;;;12.73;7.23;;;16.40;97.50;;;;;;4427658;28;658435;-75
2021/10/05 06:58:36;;;;;;;17.80;7.77;;;16.50;91.60;;;;;;4404720;28;657855;-74
2021/10/05 07:01:25;;;;;;;14.43;7.43;;;16.70;12.20;;;;;;4401536;28;658309;-74
2021/10/05 07:04:13;;;;;;;15.10;7.70;;;16.80;1.00;;;;;;4393081;28;658530;-75
2021/10/05 07:07:02;;;;;;;10.33;6.93;;;16.90;1.00;;;;;;4399473;28;656862;-75
2021/10/05 07:09:50;;;;;;;12.23;7.72;;;17.00;99.90;;;;;;4428699;28;656404;-74
2021/10/05 07:12:38;;;;;;;13.47;7.90;;;17.20;99.90;;;;;;4408372;28;657972;-74
2021/10/05 07:15:29;;;;;;;12.50;7.93;;;17.30;99.90;;;;;;4389862;28;657867;-73
2021/10/05 07:18:17;;;;;;;13.97;7.37;;;17.50;99.90;;;;;;4404627;28;657451;-76
2021/10/05 07:21:06;;;;;;;11.60;7.50;;;17.60;99.90;;;;;;4433912;28;657464;-74
2021/10/05 07:23:55;;;;;;;13.57;8.03;;;17.70;99.90;;;;;;4401135;28;658913;-74
2021/10/05 07:26:44;;;;;;;12.13;7.70;;;17.90;99.90;;;;;;4386041;28;658559;-74
2021/10/05 07:29:34;;;;;;;15.97;7.73;;;18.00;99.90;;;;;;4382518;28;657725;-74
2021/10/05 07:32:24;;;;;;;14.73;8.40;;;18.10;99.90;;;;;;4359878;28;658482;-74
2021/10/05 07:35:13;;;;;;;15.53;7.93;;;18.10;99.90;;;;;;4404006;28;658869;-74
2021/10/05 07:38:01;;;;;;;14.57;7.83;;;18.20;99.90;;;;;;4397433;28;657763;-73
2021/10/05 07:40:49;;;;;;;16.20;8.50;;;18.30;99.90;;;;;;4431109;28;658258;-73
2021/10/05 07:43:38;;;;;;;14.10;7.80;;;18.50;99.90;;;;;;4407531;28;658046;-73
2021/10/05 07:46:26;;;;;;;14.33;7.37;;;18.60;99.90;;;;;;4409125;28;657576;-73
2021/10/05 07:49:18;;;;;;;12.20;8.23;;;18.70;99.90;;;;;;4430063;28;659618;-73
2021/10/05 07:52:07;;;;;;;13.83;7.10;;;18.80;99.90;;;;;;4378588;28;658654;-74
2021/10/05 07:54:55;;;;;;;12.23;7.57;;;19.00;99.90;;;;;;4429757;28;657200;-73
2021/10/05 07:57:43;;;;;;;13.10;7.37;;;19.20;99.90;;;;;;4409647;28;659374;-73
2021/10/05 08:00:31;;;;;;;12.30;8.37;;;19.30;99.90;;;;;;4417631;28;657536;-75
2021/10/05 08:03:19;;;;;;;19.00;7.97;;;19.50;99.90;;;;;;4411085;28;658151;-73
2021/10/05 08:06:08;;;;;;;10.83;7.30;;;19.40;99.90;;;;;;4392410;28;657572;-73
2021/10/05 08:08:57;;;;;;;14.63;8.27;;;19.60;99.90;;;;;;4368639;28;657561;-73
2021/10/05 08:11:45;;;;;;;16.77;8.50;;;19.70;99.90;;;;;;4424951;28;657859;-72
2021/10/05 08:14:33;;;;;;;13.93;8.00;;;19.90;99.90;;;;;;4404741;28;658545;-73
2021/10/05 08:17:21;;;;;;;17.23;8.00;;;20.10;99.90;;;;;;4409353;28;658229;-72
2021/10/05 08:20:12;;;;;;;16.23;8.77;;;20.10;99.90;;;;;;4430977;28;658199;-72
2021/10/05 08:23:06;;;;;;;19.63;8.47;;;20.40;99.90;;;;;;4383767;28;657621;-73
2021/10/05 08:25:54;;;;;;;15.53;8.27;;;20.60;99.90;;;;;;4399606;28;658130;-73
2021/10/05 08:28:43;;;;;;;15.07;7.57;;;20.70;99.90;;;;;;4400698;28;657643;-73
2021/10/05 08:31:32;;;;;;;13.63;8.20;;;20.70;99.90;;;;;;4403777;28;657819;-73
2021/10/05 08:34:20;;;;;;;10.27;7.73;;;20.70;99.90;;;;;;4430771;28;657921;-73
2021/10/05 08:37:08;;;;;;;13.13;7.73;;;21.00;99.90;;;;;;4387757;28;658498;-73
2021/10/05 08:39:58;;;;;;;14.47;7.93;;;21.30;99.90;;;;;;4392892;28;657867;-73
2021/10/05 08:42:46;;;;;;;10.23;7.40;;;21.50;99.90;;;;;;4386404;28;657595;-73
2021/10/05 08:45:35;;;;;;;13.93;7.10;;;21.80;99.90;;;;;;4405106;28;657596;-72
2021/10/05 08:48:27;;;;;;;17.30;7.40;;;22.10;99.90;;;;;;4396775;28;658427;-72
2021/10/05 08:51:15;;;;;;;17.30;7.50;;;22.30;99.90;;;;;;4390148;28;657274;-74
2021/10/05 08:54:03;;;;;;;12.83;7.10;;;22.30;99.90;;;;;;4380519;28;658205;-72
2021/10/05 08:56:52;;;;;;;13.93;7.33;;;22.60;99.90;;;;;;4377285;28;658022;-73
2021/10/05 08:59:41;;;;;;;11.77;7.50;;;22.60;99.90;;;;;;4399479;28;658279;-71
2021/10/05 09:02:29;;;;;;;11.00;7.20;;;22.70;99.90;;;;;;4410371;28;657676;-72
2021/10/05 09:05:17;;;;;;;18.90;6.93;;;23.00;99.90;;;;;;4390286;28;658357;-72
2021/10/05 09:08:05;;;;;;;12.30;7.30;;;23.20;99.90;;;;;;4419772;28;657953;-72
2021/10/05 09:10:54;;;;;;;17.40;7.60;;;23.30;99.90;;;;;;4387199;28;658299;-71
2021/10/05 09:13:45;;;;;;;12.70;6.47;;;23.50;99.90;;;;;;4395104;28;657822;-72
2021/10/05 09:16:34;;;;;;;14.40;7.03;;;23.70;99.90;;;;;;4371659;28;658097;-72
2021/10/05 09:19:22;;;;;;;16.17;6.87;;;23.60;99.90;;;;;;4388752;28;659567;-72
2021/10/05 09:22:17;;;;;;;15.20;6.80;;;23.20;99.90;;;;;;4418270;28;658091;-72
2021/10/05 09:25:10;;;;;;;12.07;6.57;;;23.60;99.90;;;;;;4417876;28;657665;-71
2021/10/05 09:27:59;;;;;;;11.57;6.97;;;23.80;99.90;;;;;;4397545;28;658205;-72
2021/10/05 09:30:59;;;;;;;13.57;6.10;;;24.00;99.90;;;;;;4400935;28;658243;-72
2021/10/05 09:33:53;;;;;;;11.73;6.63;;;24.50;99.90;;;;;;4388802;28;657622;-72
2021/10/05 09:36:41;;;;;;;12.02;6.53;;;24.60;99.90;;;;;;4372372;28;657592;-71
2021/10/05 09:39:37;;;;;;;11.13;6.30;;;24.80;99.90;;;;;;4410982;28;658585;-71
2021/10/05 09:42:29;;;;;;;10.82;5.30;;;24.90;99.90;;;;;;4388150;28;657875;-72
2021/10/05 09:45:18;;;;;;;12.75;5.72;;;25.30;99.90;;;;;;4386184;28;658623;-72
2021/10/05 09:48:09;;;;;;;10.48;5.85;;;25.40;99.40;;;;;;4390272;28;657897;-72
2021/10/05 09:50:57;;;;;;;9.93;5.80;;;25.30;99.10;;;;;;4392041;28;657627;-72
2021/10/05 09:53:46;;;;;;;12.40;5.82;;;25.20;99.60;;;;;;4406872;28;658025;-72
2021/10/05 09:56:34;;;;;;;10.40;6.15;;;25.30;98.50;;;;;;4408828;28;658745;-72
2021/10/05 09:59:22;;;;;;;10.80;6.22;;;25.40;98.40;;;;;;4392017;28;657980;-72
2021/10/05 10:02:11;;;;;;;13.48;6.00;;;25.50;97.60;;;;;;4410295;28;659710;-72
2021/10/05 10:05:01;;;;;;;9.93;5.93;;;25.60;97.50;;;;;;4420393;28;658293;-71
2021/10/05 10:07:50;;;;;;;11.27;5.68;;;25.70;97.00;;;;;;4402477;28;657619;-71
2021/10/05 10:10:39;;;;;;;12.00;6.28;;;25.90;95.90;;;;;;4366889;28;657956;-71
2021/10/05 10:13:27;;;;;;;12.50;6.00;;;26.20;95.20;;;;;;4391002;28;658558;-72
2021/10/05 10:16:15;;;;;;;14.35;6.90;;;26.30;95.00;;;;;;4414595;28;657955;-72
2021/10/05 10:19:03;;;;;;;15.63;6.53;;;26.10;94.80;;;;;;4392868;28;658995;-72
2021/10/05 10:21:53;;;;;;;12.50;5.97;;;26.30;94.30;;;;;;4387683;28;658326;-72
2021/10/05 10:24:48;;;;;;;13.70;7.28;;;26.20;93.30;;;;;;4391818;28;657662;-72
2021/10/05 10:27:45;;;;;;;14.65;7.00;;;26.40;93.80;;;;;;4399177;28;658679;-72
2021/10/05 10:30:33;;;;;;;14.88;6.22;;;26.70;92.70;;;;;;4383548;28;658321;-72
2021/10/05 10:33:21;;;;;;;16.00;6.40;;;26.70;92.40;;;;;;4398192;28;657780;-72
2021/10/05 10:36:09;;;;;;;17.85;6.40;;;26.80;92.40;;;;;;4423510;28;659203;-72
2021/10/05 10:39:07;;;;;;;18.80;6.43;;;27.00;91.30;;;;;;4409284;28;657437;-71
2021/10/05 10:42:03;;;;;;;10.75;6.15;;;26.90;91.40;;;;;;4394905;28;658400;-71
2021/10/05 10:44:52;;;;;;;13.63;6.38;;;27.00;90.50;;;;;;4403850;28;657476;-72
2021/10/05 10:47:41;;;;;;;15.90;6.50;;;27.10;90.30;;;;;;4432587;28;657630;-72
2021/10/05 10:50:35;;;;;;;15.32;6.20;;;27.20;88.10;;;;;;4395568;28;658177;-71
2021/10/05 10:53:36;;;;;;;9.43;5.90;;;27.50;85.80;;;;;;4367849;28;658822;-71
2021/10/05 10:56:34;;;;;;;12.18;6.18;;;27.60;83.40;;;;;;4410528;28;656914;-71
2021/10/05 10:59:22;;;;;;;15.65;6.03;;;27.70;80.60;;;;;;4400627;28;657968;-71
2021/10/05 11:02:09;;;;;;;15.20;6.07;;;27.60;79.00;;;;;;4430570;28;657724;-72
2021/10/05 11:04:58;;;;;;;14.75;5.75;;;27.40;79.80;;;;;;4396193;28;658061;-72
2021/10/05 11:07:46;;;;;;;10.55;5.95;;;27.20;81.60;;;;;;4396373;28;657907;-72
2021/10/05 11:10:34;;;;;;;12.65;5.75;;;27.50;80.40;;;;;;4418589;28;659394;-74
2021/10/05 11:13:23;;;;;;;16.85;5.70;;;27.60;80.10;;;;;;4405768;28;657548;-72
2021/10/05 11:16:11;;;;;;;11.02;5.93;;;27.60;76.60;;;;;;4408447;28;660412;-72
2021/10/05 11:19:10;;;;;;;15.23;6.05;;;27.90;76.70;;;;;;4430369;28;658569;-71
2021/10/05 11:21:57;;;;;;;11.50;5.40;;;27.50;75.50;;;;;;4379278;28;657876;-72
2021/10/05 11:24:47;;;;;;;13.10;6.32;;;27.30;75.40;;;;;;4422208;28;657830;-72
2021/10/05 11:27:35;;;;;;;11.98;6.35;;;27.40;77.30;;;;;;4443583;28;657274;-72
2021/10/05 11:30:26;;;;;;;12.23;6.22;;;27.60;75.90;;;;;;4396997;28;658088;-72
2021/10/05 11:33:28;;;;;;;10.85;5.85;;;28.00;74.90;;;;;;4405270;28;658156;-72
2021/10/05 11:36:21;;;;;;;11.73;6.15;;;28.10;74.10;;;;;;4383342;28;658464;-72
2021/10/05 11:39:09;;;;;;;10.68;6.28;;;28.10;74.30;;;;;;4409828;28;658104;-71
2021/10/05 11:41:59;;;;;;;9.57;6.05;;;28.20;73.40;;;;;;4385575;28;657947;-71
2021/10/05 11:44:47;;;;;;;12.75;6.30;;;28.40;73.60;;;;;;4408873;28;656671;-72
2021/10/05 11:47:37;;;;;;;11.57;6.50;;;28.40;72.80;;;;;;4428228;28;657432;-71
2021/10/05 11:50:24;;;;;;;12.25;5.90;;;28.90;75.40;;;;;;4396236;28;657982;-72
2021/10/05 11:53:12;;;;;;;14.20;6.07;;;29.20;71.20;;;;;;4405981;28;659141;-71
2021/10/05 11:56:04;;;;;;;13.73;6.35;;;29.10;71.70;;;;;;4416514;28;657510;-72
2021/10/05 11:58:55;;;;;;;8.27;5.80;;;29.30;72.00;;;;;;4402864;28;658343;-72
2021/10/05 12:01:43;;;;;;;16.45;6.25;;;29.30;71.20;;;;;;4388915;28;657758;-71
2021/10/05 12:04:32;;;;;;;9.93;6.13;;;29.50;70.50;;;;;;4406812;28;657967;-72
2021/10/05 12:07:21;;;;;;;10.75;6.35;;;29.60;71.80;;;;;;4421894;28;656802;-71
2021/10/05 12:10:09;;;;;;;15.38;7.05;;;29.70;69.30;;;;;;4391393;28;657711;-72
2021/10/05 12:12:57;;;;;;;13.90;5.88;;;29.80;66.00;;;;;;4400175;28;658191;-72
2021/10/05 12:15:45;;;;;;;10.25;5.97;;;30.10;70.00;;;;;;4426578;28;656837;-72
2021/10/05 12:18:33;;;;;;;10.52;6.13;;;30.40;66.90;;;;;;4393679;28;658402;-72
2021/10/05 12:21:22;;;;;;;10.75;6.20;;;30.70;65.20;;;;;;4412728;28;657576;-73
2021/10/05 12:24:10;;;;;;;10.90;6.15;;;30.90;64.50;;;;;;4425162;28;657633;-73
2021/10/05 12:26:59;;;;;;;14.33;6.40;;;30.70;65.10;;;;;;4412870;28;657780;-72
2021/10/05 12:29:48;;;;;;;12.03;6.03;;;30.80;65.70;;;;;;4391778;28;657792;-71
2021/10/05 12:32:41;;;;;;;14.57;6.07;;;30.70;64.10;;;;;;4397285;28;658072;-72
2021/10/05 12:35:30;;;;;;;13.45;6.47;;;30.80;63.10;;;;;;4390087;28;657861;-72
2021/10/05 12:38:21;;;;;;;15.88;6.82;;;30.60;63.90;;;;;;4382922;28;658445;-72
2021/10/05 12:41:11;;;;;;;17.75;6.93;;;30.50;63.30;;;;;;4380462;28;659151;-72
2021/10/05 12:44:01;;;;;;;14.52;6.63;;;30.50;63.90;;;;;;4368845;28;658108;-72
2021/10/05 12:46:58;;;;;;;11.80;6.32;;;30.70;63.40;;;;;;4414035;28;658339;-71
2021/10/05 12:49:52;;;;;;;12.02;6.22;;;30.40;63.80;;;;;;4371721;28;657503;-71
2021/10/05 12:52:52;;;;;;;13.45;6.60;;;30.70;63.70;;;;;;4387847;28;657558;-71
2021/10/05 12:55:41;;;;;;;10.52;5.95;;;30.80;63.80;;;;;;4384738;28;657860;-72
2021/10/05 12:58:29;;;;;;;11.63;6.10;;;31.10;62.00;;;;;;4389798;28;658672;-72
2021/10/05 13:01:16;;;;;;;13.50;6.10;;;31.50;60.50;;;;;;4363647;28;657830;-72
2021/10/05 13:04:05;;;;;;;9.18;6.22;;;31.70;59.30;;;;;;4412442;28;658416;-72
2021/10/05 13:06:52;;;;;;;13.03;6.10;;;31.70;59.60;;;;;;4386040;28;656674;-71
2021/10/05 13:09:40;;;;;;;13.90;6.25;;;32.10;59.30;;;;;;4409426;28;657665;-71
2021/10/05 13:12:29;;;;;;;12.45;6.03;;;32.30;58.40;;;;;;4375572;28;658229;-71
2021/10/05 13:15:17;;;;;;;11.00;5.70;;;32.60;56.70;;;;;;4383964;28;657764;-71
2021/10/05 13:18:04;;;;;;;16.50;5.78;;;33.10;57.10;;;;;;4412324;28;657961;-72
2021/10/05 13:20:53;;;;;;;11.32;5.35;;;33.20;55.70;;;;;;4368562;28;658326;-71
2021/10/05 13:23:41;;;;;;;7.83;4.43;;;33.20;52.50;;;;;;4385339;28;657529;-71
2021/10/05 13:26:28;;;;;;;7.10;4.13;;;33.40;48.00;;;;;;4410530;28;657324;-72
2021/10/05 13:29:17;;;;;;;7.20;4.10;;;33.70;44.80;;;;;;4382199;28;657620;-74
2021/10/05 13:32:07;;;;;;;8.80;3.92;;;34.20;45.00;;;;;;4367207;28;656014;-72
2021/10/05 13:34:55;;;;;;;8.32;3.90;;;34.10;43.30;;;;;;4366559;28;656651;-72
2021/10/05 13:37:42;;;;;;;8.63;3.53;;;34.90;40.80;;;;;;4367498;28;657909;-71
2021/10/05 13:40:31;;;;;;;8.82;3.50;;;35.00;39.30;;;;;;4403981;28;656878;-75
2021/10/05 13:43:19;;;;;;;6.85;3.30;;;35.30;39.00;;;;;;4409293;28;657783;-72
2021/10/05 13:46:08;;;;;;;7.93;3.50;;;35.80;37.80;;;;;;4387922;28;656755;-73
2021/10/05 13:48:56;;;;;;;6.72;3.22;;;35.70;38.20;;;;;;4380555;28;656822;-73
2021/10/05 13:51:43;;;;;;;5.95;3.70;;;36.30;37.40;;;;;;4405977;28;657201;-71
2021/10/05 13:54:32;;;;;;;7.60;3.55;;;35.70;36.60;;;;;;4383440;28;656948;-72
2021/10/05 13:57:19;;;;;;;5.10;3.50;;;36.30;37.80;;;;;;4416254;28;656434;-72
2021/10/05 14:00:08;;;;;;;7.27;3.77;;;36.70;35.60;;;;;;4377927;28;656754;-71
2021/10/05 14:02:57;;;;;;;6.78;3.92;;;36.80;34.40;;;;;;4379337;28;656848;-72
2021/10/05 14:05:45;;;;;;;6.85;3.67;;;37.40;34.50;;;;;;4401043;28;656659;-71
2021/10/05 14:08:33;;;;;;;8.55;3.20;;;38.10;34.00;;;;;;4388199;28;657493;-71
2021/10/05 14:11:21;;;;;;;6.60;3.20;;;38.00;31.30;;;;;;4377223;28;656388;-72
2021/10/05 14:14:08;;;;;;;12.52;3.40;;;37.40;32.60;;;;;;4403170;28;657616;-71